Time;durP1;ratioP1;P1;durP2;ratioP2;P2;SDS_P1;SDS_P2;PMS_P1;PMS_P2;Temp;Humidity;BMP_temperature;BMP_pressure;BME280_temperature;BME280_humidity;BME280_pressure;Samples;Min_cycle;Max_cycle;Signal;HPM_P1;HPM_P2
2022/10/13 00:00:32;;;;;;;1.63;1.53;;;25.60;57.80;;;;;;5035230;28;20481;-84
2022/10/13 00:03:00;;;;;;;2.20;2.10;;;25.60;57.80;;;;;;5035372;28;20453;-84
2022/10/13 00:05:27;;;;;;;2.13;1.90;;;25.60;57.80;;;;;;5035178;28;20435;-84
2022/10/13 00:07:54;;;;;;;1.73;1.63;;;25.50;57.70;;;;;;5034327;28;20439;-83
2022/10/13 00:10:21;;;;;;;1.70;1.60;;;25.60;57.80;;;;;;5034197;28;20456;-84
2022/10/13 00:12:49;;;;;;;2.00;1.90;;;25.50;57.70;;;;;;5035068;28;20452;-84
2022/10/13 00:15:17;;;;;;;2.33;2.13;;;25.50;58.30;;;;;;5035123;28;20535;-84
2022/10/13 00:17:44;;;;;;;2.90;2.20;;;25.50;57.80;;;;;;5035111;28;20438;-84
2022/10/13 00:20:12;;;;;;;1.87;1.77;;;25.50;57.80;;;;;;5035074;28;20441;-84
2022/10/13 00:22:39;;;;;;;1.90;1.80;;;25.60;57.90;;;;;;5034872;28;20486;-84
2022/10/13 00:25:07;;;;;;;1.90;1.80;;;25.50;57.80;;;;;;5035277;28;20454;-84
2022/10/13 00:27:33;;;;;;;1.93;1.83;;;25.50;57.80;;;;;;5035049;28;20445;-84
2022/10/13 00:30:01;;;;;;;1.63;1.53;;;25.50;57.80;;;;;;5034757;28;20447;-84
2022/10/13 00:32:29;;;;;;;1.90;1.80;;;25.50;57.80;;;;;;5034816;28;20801;-84
2022/10/13 00:34:56;;;;;;;1.77;1.67;;;25.50;57.80;;;;;;5034647;28;20444;-84
2022/10/13 00:37:23;;;;;;;1.90;1.80;;;25.50;57.80;;;;;;5034574;28;20448;-84
2022/10/13 00:39:50;;;;;;;2.10;2.00;;;25.50;57.80;;;;;;5034409;28;20481;-83
2022/10/13 00:42:17;;;;;;;1.70;1.60;;;25.50;57.90;;;;;;5034392;28;20487;-84
2022/10/13 00:45:04;;;;;;;2.03;1.93;;;25.50;57.80;;;;;;5034400;28;20925;-84
2022/10/13 00:47:36;;;;;;;1.47;1.37;;;25.50;57.80;;;;;;5034411;28;20445;-84
2022/10/13 00:50:03;;;;;;;2.30;2.20;;;25.50;57.90;;;;;;5034358;28;20453;-84
2022/10/13 00:52:32;;;;;;;1.57;1.47;;;25.50;57.90;;;;;;5034196;28;20473;-84
2022/10/13 00:54:59;;;;;;;1.70;1.60;;;25.50;57.90;;;;;;5034534;28;20432;-83
2022/10/13 00:57:26;;;;;;;1.60;1.50;;;25.50;57.90;;;;;;5034440;28;20440;-83
2022/10/13 00:59:54;;;;;;;1.90;1.80;;;25.50;57.90;;;;;;5034035;28;20933;-83
2022/10/13 01:02:23;;;;;;;1.63;1.53;;;25.50;57.90;;;;;;5034039;28;21009;-83
2022/10/13 01:04:51;;;;;;;1.40;1.30;;;25.50;57.90;;;;;;5034293;28;20793;-83
2022/10/13 01:07:19;;;;;;;2.17;2.07;;;25.50;57.90;;;;;;5033994;28;20456;-83
2022/10/13 01:09:46;;;;;;;1.77;1.67;;;25.50;57.80;;;;;;5033802;28;20445;-83
2022/10/13 01:12:26;;;;;;;1.90;1.80;;;25.50;57.90;;;;;;5033915;28;20456;-83
2022/10/13 01:15:03;;;;;;;1.77;1.67;;;25.50;57.90;;;;;;5033990;28;20432;-83
2022/10/13 01:17:36;;;;;;;1.60;1.50;;;25.50;57.90;;;;;;5033895;28;20443;-84
2022/10/13 01:20:36;;;;;;;1.40;1.30;;;25.50;57.90;;;;;;5033443;28;20446;-82
2022/10/13 01:23:23;;;;;;;1.57;1.47;;;25.50;57.80;;;;;;5033809;28;20830;-83
2022/10/13 01:26:18;;;;;;;2.13;1.80;;;25.50;57.90;;;;;;5033642;28;20435;-83
2022/10/13 01:29:08;;;;;;;1.80;1.70;;;25.50;57.90;;;;;;5033767;28;20941;-84
2022/10/13 01:31:45;;;;;;;2.10;2.00;;;25.50;57.90;;;;;;5030372;28;20515;-84
2022/10/13 01:34:20;;;;;;;1.80;1.70;;;25.50;57.90;;;;;;5033621;28;20441;-84
2022/10/13 01:36:53;;;;;;;1.80;1.70;;;25.50;57.90;;;;;;5033768;28;20462;-84
2022/10/13 01:39:25;;;;;;;1.57;1.47;;;25.50;57.90;;;;;;5033626;28;20481;-84
2022/10/13 01:41:56;;;;;;;1.70;1.60;;;25.50;58.00;;;;;;5033233;28;20493;-84
2022/10/13 01:44:29;;;;;;;1.73;1.63;;;25.50;57.90;;;;;;5033456;28;20443;-84
2022/10/13 01:46:59;;;;;;;1.67;1.57;;;25.50;57.90;;;;;;5033850;28;20448;-84
2022/10/13 01:49:30;;;;;;;1.60;1.50;;;25.50;57.90;;;;;;5033316;28;20446;-84
2022/10/13 01:52:01;;;;;;;1.60;1.50;;;25.50;57.90;;;;;;5033332;28;20821;-84
2022/10/13 01:54:28;;;;;;;1.40;1.30;;;25.50;57.90;;;;;;5033482;28;20449;-84
2022/10/13 01:56:56;;;;;;;1.53;1.43;;;25.40;57.90;;;;;;5033524;28;20467;-84
2022/10/13 01:59:25;;;;;;;1.63;1.53;;;25.40;57.90;;;;;;5033432;28;20453;-84
2022/10/13 02:02:03;;;;;;;1.67;1.57;;;25.50;57.90;;;;;;5032994;28;20507;-84
2022/10/13 02:04:41;;;;;;;1.83;1.73;;;25.50;57.90;;;;;;5033415;28;20447;-84
2022/10/13 02:07:34;;;;;;;1.70;1.60;;;25.50;57.90;;;;;;5033359;28;20440;-84
2022/10/13 02:10:06;;;;;;;1.50;1.40;;;25.50;57.90;;;;;;5011796;28;20465;-84
2022/10/13 02:12:39;;;;;;;1.77;1.67;;;25.40;57.90;;;;;;5011614;28;20442;-84
2022/10/13 02:15:10;;;;;;;1.70;1.60;;;25.50;58.00;;;;;;5011164;28;20443;-84
2022/10/13 02:17:39;;;;;;;1.63;1.53;;;25.40;57.90;;;;;;5011479;28;20797;-82
2022/10/13 02:20:08;;;;;;;1.57;1.47;;;25.40;57.90;;;;;;5011665;28;20771;-83
2022/10/13 02:22:41;;;;;;;1.30;1.20;;;25.40;57.90;;;;;;5011189;28;20493;-84
2022/10/13 02:25:08;;;;;;;1.67;1.57;;;25.40;57.90;;;;;;5011543;28;20451;-84
2022/10/13 02:27:35;;;;;;;1.47;1.37;;;25.40;57.90;;;;;;5017862;28;20812;-84
2022/10/13 02:30:02;;;;;;;1.63;1.53;;;25.40;57.90;;;;;;5033149;28;20452;-84
2022/10/13 02:32:29;;;;;;;1.87;1.77;;;25.40;57.90;;;;;;5035179;28;20452;-84
2022/10/13 02:34:57;;;;;;;1.70;1.60;;;25.40;58.00;;;;;;5036848;28;20441;-84
2022/10/13 02:37:24;;;;;;;1.50;1.40;;;25.40;57.90;;;;;;5036949;28;20449;-84
2022/10/13 02:39:51;;;;;;;1.40;1.30;;;25.40;57.90;;;;;;5036335;28;20515;-84
2022/10/13 02:42:18;;;;;;;1.70;1.60;;;25.40;57.90;;;;;;5036722;28;20486;-84
2022/10/13 02:44:45;;;;;;;1.70;1.60;;;25.40;57.90;;;;;;5036721;28;20439;-84
2022/10/13 02:47:12;;;;;;;1.53;1.43;;;25.40;57.90;;;;;;5036766;28;20435;-84
2022/10/13 02:49:38;;;;;;;1.70;1.60;;;25.40;57.90;;;;;;5036804;28;20460;-84
2022/10/13 02:52:06;;;;;;;1.80;1.70;;;25.40;58.00;;;;;;5036491;28;20468;-84
2022/10/13 02:54:33;;;;;;;1.50;1.40;;;25.40;57.90;;;;;;5036715;28;20438;-84
2022/10/13 02:57:00;;;;;;;1.50;1.40;;;25.40;58.00;;;;;;5036685;28;20444;-84
2022/10/13 02:59:27;;;;;;;1.50;1.40;;;25.50;58.00;;;;;;5036495;28;20464;-84
2022/10/13 03:01:53;;;;;;;1.40;1.30;;;25.40;58.50;;;;;;5036261;28;20831;-84
2022/10/13 03:04:20;;;;;;;1.60;1.50;;;25.40;57.90;;;;;;5036021;28;20441;-84
2022/10/13 03:06:47;;;;;;;1.50;1.40;;;25.40;58.00;;;;;;5036406;28;20450;-84
2022/10/13 03:09:15;;;;;;;1.53;1.43;;;25.40;58.00;;;;;;5036248;28;20446;-84
2022/10/13 03:11:42;;;;;;;1.47;1.37;;;25.40;58.00;;;;;;5036288;28;21582;-84
2022/10/13 03:14:08;;;;;;;1.53;1.43;;;25.40;58.00;;;;;;5036218;28;20464;-84
2022/10/13 03:16:35;;;;;;;1.63;1.53;;;25.40;58.00;;;;;;5036276;28;20518;-84
2022/10/13 03:19:02;;;;;;;1.53;1.43;;;25.40;58.00;;;;;;5036530;28;20448;-84
2022/10/13 03:21:29;;;;;;;1.50;1.40;;;25.40;58.60;;;;;;5035885;28;20472;-84
2022/10/13 03:23:55;;;;;;;1.50;1.40;;;25.40;58.00;;;;;;5036091;28;20795;-84
2022/10/13 03:26:24;;;;;;;1.50;1.40;;;25.40;58.00;;;;;;5036393;28;20431;-84
2022/10/13 03:28:51;;;;;;;1.70;1.60;;;25.40;58.00;;;;;;5035787;28;20449;-84
2022/10/13 03:31:18;;;;;;;1.40;1.30;;;25.40;58.00;;;;;;5036049;28;20472;-84
2022/10/13 03:33:45;;;;;;;1.50;1.40;;;25.40;58.00;;;;;;5035895;28;20445;-84
2022/10/13 03:36:13;;;;;;;1.67;1.57;;;25.40;58.00;;;;;;5036184;28;20446;-84
2022/10/13 03:38:41;;;;;;;1.47;1.37;;;25.40;58.00;;;;;;5035883;28;20866;-84
2022/10/13 03:41:09;;;;;;;1.70;1.60;;;25.40;58.00;;;;;;5035868;28;20441;-84
2022/10/13 03:43:37;;;;;;;1.40;1.30;;;25.40;58.00;;;;;;5035390;28;20495;-84
2022/10/13 03:46:06;;;;;;;1.60;1.50;;;25.40;58.00;;;;;;5035893;28;20919;-84
2022/10/13 03:48:34;;;;;;;1.50;1.40;;;25.40;58.00;;;;;;5035543;28;20438;-84
2022/10/13 03:51:04;;;;;;;1.40;1.30;;;25.40;58.00;;;;;;5035557;28;20813;-84
2022/10/13 03:53:31;;;;;;;1.30;1.20;;;25.40;58.00;;;;;;5035695;28;20446;-84
2022/10/13 03:55:58;;;;;;;1.33;1.23;;;25.40;58.00;;;;;;5034833;28;20457;-84
2022/10/13 03:58:27;;;;;;;1.50;1.40;;;25.40;58.10;;;;;;5035716;28;20933;-84
2022/10/13 04:00:56;;;;;;;1.30;1.20;;;25.40;58.10;;;;;;5035486;28;20444;-83
2022/10/13 04:03:24;;;;;;;1.60;1.50;;;25.40;58.00;;;;;;5035299;28;21013;-84
2022/10/13 04:05:50;;;;;;;1.47;1.37;;;25.40;58.00;;;;;;5035310;28;20510;-84
2022/10/13 04:08:17;;;;;;;1.60;1.50;;;25.40;58.00;;;;;;5035174;28;20449;-84
2022/10/13 04:10:44;;;;;;;1.53;1.43;;;25.40;58.00;;;;;;5035180;28;20966;-84
2022/10/13 04:13:11;;;;;;;1.30;1.20;;;25.40;58.00;;;;;;5035118;28;20469;-84
2022/10/13 04:15:38;;;;;;;1.50;1.40;;;25.30;58.00;;;;;;5034934;28;20435;-84
2022/10/13 04:18:07;;;;;;;1.30;1.20;;;25.30;58.00;;;;;;5035023;28;20794;-84
2022/10/13 04:20:37;;;;;;;1.50;1.40;;;25.40;58.10;;;;;;5035039;28;20533;-84
2022/10/13 04:23:04;;;;;;;1.40;1.30;;;25.30;58.00;;;;;;5035284;28;20485;-84
2022/10/13 04:25:34;;;;;;;1.37;1.27;;;25.30;58.00;;;;;;5035133;28;20480;-84
2022/10/13 04:28:01;;;;;;;1.57;1.47;;;25.30;58.00;;;;;;5035005;28;20439;-84
2022/10/13 04:30:28;;;;;;;1.33;1.23;;;25.30;58.00;;;;;;5034839;28;20442;-84
2022/10/13 04:32:54;;;;;;;1.50;1.40;;;25.30;58.00;;;;;;5034218;28;20432;-84
2022/10/13 04:35:22;;;;;;;1.43;1.33;;;25.30;58.00;;;;;;5034766;28;20448;-84
2022/10/13 04:37:49;;;;;;;1.27;1.17;;;25.40;58.10;;;;;;5034699;28;20487;-84
2022/10/13 04:40:16;;;;;;;1.47;1.37;;;25.30;58.00;;;;;;5034402;28;20482;-84
2022/10/13 04:42:43;;;;;;;1.50;1.40;;;25.30;58.00;;;;;;5034433;28;20489;-84
2022/10/13 04:45:11;;;;;;;1.30;1.20;;;25.30;58.00;;;;;;5034390;28;20441;-84
2022/10/13 04:47:38;;;;;;;1.33;1.23;;;25.30;58.00;;;;;;5034450;28;20442;-84
2022/10/13 04:50:06;;;;;;;1.50;1.40;;;25.30;58.10;;;;;;5034029;28;20479;-84
2022/10/13 04:52:35;;;;;;;1.40;1.30;;;25.30;58.00;;;;;;5034380;28;20458;-84
2022/10/13 04:55:02;;;;;;;1.20;1.10;;;25.30;58.10;;;;;;5033744;28;20448;-84
2022/10/13 04:57:29;;;;;;;1.17;1.07;;;25.30;58.10;;;;;;5033806;28;20441;-83
2022/10/13 04:59:56;;;;;;;1.40;1.30;;;25.30;58.00;;;;;;5034338;28;20440;-84
2022/10/13 05:02:23;;;;;;;1.40;1.30;;;25.30;58.00;;;;;;5034170;28;20501;-84
2022/10/13 05:04:50;;;;;;;1.33;1.23;;;25.30;58.10;;;;;;5033613;28;20444;-83
2022/10/13 05:07:17;;;;;;;1.30;1.20;;;25.30;58.10;;;;;;5034180;28;20453;-83
2022/10/13 05:09:45;;;;;;;1.50;1.40;;;25.30;58.10;;;;;;5034034;28;20440;-83
2022/10/13 05:12:12;;;;;;;1.30;1.20;;;25.30;58.10;;;;;;5033978;28;20533;-82
2022/10/13 05:14:39;;;;;;;1.27;1.17;;;25.30;58.10;;;;;;5034143;28;20860;-83
2022/10/13 05:17:06;;;;;;;1.20;1.10;;;25.30;58.10;;;;;;5034135;28;20440;-83
2022/10/13 05:19:32;;;;;;;1.57;1.47;;;25.30;58.70;;;;;;5033903;28;21008;-83
2022/10/13 05:21:59;;;;;;;1.50;1.40;;;25.30;58.70;;;;;;5033671;28;20552;-83
2022/10/13 05:24:35;;;;;;;1.93;1.83;;;25.30;58.10;;;;;;5033420;28;20452;-83
2022/10/13 05:27:04;;;;;;;1.30;1.20;;;25.30;58.10;;;;;;5034112;28;20503;-83
2022/10/13 05:29:31;;;;;;;1.33;1.23;;;25.30;58.10;;;;;;5033749;28;20970;-83
2022/10/13 05:31:58;;;;;;;1.20;1.10;;;25.30;58.10;;;;;;5033837;28;20441;-82
2022/10/13 05:34:25;;;;;;;1.40;1.30;;;25.30;58.10;;;;;;5033243;28;20537;-83
2022/10/13 05:36:51;;;;;;;1.30;1.20;;;25.30;58.10;;;;;;5033491;28;20440;-82
2022/10/13 05:39:18;;;;;;;1.27;1.17;;;25.30;58.10;;;;;;5033692;28;20482;-83
2022/10/13 05:41:45;;;;;;;1.40;1.30;;;25.30;58.10;;;;;;5033531;28;20949;-82
2022/10/13 05:44:15;;;;;;;1.10;1.00;;;25.30;58.10;;;;;;5033031;28;20481;-82
2022/10/13 05:46:42;;;;;;;1.30;1.20;;;25.30;58.10;;;;;;5034323;28;20448;-83
2022/10/13 05:49:09;;;;;;;1.37;1.27;;;25.30;58.10;;;;;;5033224;28;20447;-84
2022/10/13 05:51:39;;;;;;;1.40;1.30;;;25.30;58.10;;;;;;5033332;28;20464;-84
2022/10/13 05:54:13;;;;;;;1.20;1.10;;;25.30;58.20;;;;;;5033386;28;20796;-84
2022/10/13 05:56:45;;;;;;;1.27;1.17;;;25.30;58.20;;;;;;5033189;28;20917;-84
2022/10/13 05:59:16;;;;;;;1.37;1.27;;;25.20;58.10;;;;;;5033319;28;20438;-84
2022/10/13 06:01:43;;;;;;;1.37;1.27;;;25.30;58.10;;;;;;5033395;28;20437;-84
2022/10/13 06:04:17;;;;;;;1.20;1.10;;;25.20;58.10;;;;;;5032839;28;20492;-84
2022/10/13 06:06:44;;;;;;;1.53;1.43;;;25.20;58.10;;;;;;5036263;28;20988;-84
2022/10/13 06:09:11;;;;;;;1.30;1.20;;;25.20;58.10;;;;;;5037403;28;20838;-84
2022/10/13 06:11:37;;;;;;;1.40;1.30;;;25.20;58.10;;;;;;5037283;28;20816;-84
2022/10/13 06:14:04;;;;;;;1.40;1.30;;;25.30;58.10;;;;;;5039684;28;20456;-83
2022/10/13 06:16:36;;;;;;;1.50;1.40;;;25.30;58.10;;;;;;5033759;28;20445;-84
2022/10/13 06:19:03;;;;;;;1.30;1.20;;;25.20;58.10;;;;;;5023566;28;20441;-84
2022/10/13 06:21:30;;;;;;;1.47;1.37;;;25.30;58.20;;;;;;5022555;28;20556;-85
2022/10/13 06:23:56;;;;;;;1.53;1.43;;;25.20;58.10;;;;;;5021572;28;20496;-82
2022/10/13 06:26:23;;;;;;;1.30;1.20;;;25.20;58.10;;;;;;5037176;28;20948;-82
2022/10/13 06:28:50;;;;;;;1.83;1.20;;;25.20;58.10;;;;;;5037046;28;20442;-82
2022/10/13 06:31:17;;;;;;;4.30;1.80;;;25.20;58.20;;;;;;5037153;28;20444;-85
2022/10/13 06:33:45;;;;;;;3.00;1.30;;;25.20;58.40;;;;;;5037305;28;20452;-82
2022/10/13 06:36:11;;;;;;;1.40;1.30;;;25.20;58.50;;;;;;5036957;28;20448;-82
2022/10/13 06:38:38;;;;;;;1.97;1.50;;;25.10;58.40;;;;;;5036038;28;20980;-81
2022/10/13 06:41:06;;;;;;;1.40;1.30;;;25.10;58.50;;;;;;5037071;28;20921;-82
2022/10/13 06:43:33;;;;;;;1.40;1.30;;;25.10;58.50;;;;;;5037011;28;20485;-82
2022/10/13 06:46:00;;;;;;;1.50;1.40;;;25.10;58.60;;;;;;5036873;28;20447;-82
2022/10/13 06:48:27;;;;;;;1.87;1.67;;;25.10;58.70;;;;;;5036839;28;20442;-82
2022/10/13 06:50:55;;;;;;;1.57;1.47;;;25.00;58.70;;;;;;5036655;28;20824;-82
2022/10/13 06:53:22;;;;;;;1.60;1.40;;;25.00;58.70;;;;;;5036810;28;20441;-82
2022/10/13 06:55:49;;;;;;;1.47;1.37;;;25.00;58.80;;;;;;5036723;28;20812;-82
2022/10/13 06:58:16;;;;;;;4.70;1.67;;;25.00;58.80;;;;;;5036570;28;20432;-82
2022/10/13 07:00:42;;;;;;;1.90;1.80;;;25.00;58.90;;;;;;5032081;28;20540;-81
2022/10/13 07:03:11;;;;;;;1.40;1.30;;;25.00;58.90;;;;;;5017152;28;20481;-82
2022/10/13 07:05:38;;;;;;;1.70;1.60;;;25.00;59.00;;;;;;5016943;28;20446;-83
2022/10/13 07:08:06;;;;;;;1.57;1.47;;;25.00;59.00;;;;;;5016617;28;20804;-83
2022/10/13 07:10:33;;;;;;;2.67;1.63;;;25.00;59.00;;;;;;5016640;28;20796;-82
2022/10/13 07:13:00;;;;;;;1.67;1.40;;;25.20;59.20;;;;;;5016731;28;20453;-83
2022/10/13 07:15:27;;;;;;;1.60;1.50;;;25.00;59.10;;;;;;5030186;28;20443;-86
2022/10/13 07:17:54;;;;;;;2.80;1.63;;;25.00;59.10;;;;;;5035455;28;20458;-84
2022/10/13 07:20:21;;;;;;;1.37;1.27;;;25.00;59.10;;;;;;5035988;28;20440;-83
2022/10/13 07:22:48;;;;;;;1.43;1.33;;;25.20;59.30;;;;;;5035717;28;20490;-85
2022/10/13 07:25:16;;;;;;;1.43;1.20;;;25.00;59.20;;;;;;5035607;28;20441;-86
2022/10/13 07:27:43;;;;;;;1.20;1.10;;;25.10;59.20;;;;;;5035569;28;20468;-83
2022/10/13 07:30:11;;;;;;;1.53;1.43;;;25.10;59.10;;;;;;5017424;28;20446;-83
2022/10/13 07:32:40;;;;;;;3.23;1.47;;;25.10;59.00;;;;;;5021656;28;20453;-83
2022/10/13 07:35:08;;;;;;;1.40;1.20;;;25.10;58.90;;;;;;5035032;28;20536;-87
2022/10/13 07:37:35;;;;;;;1.70;1.60;;;25.20;59.00;;;;;;5030269;28;20448;-82
2022/10/13 07:40:02;;;;;;;1.60;1.47;;;25.20;59.00;;;;;;5035255;28;20507;-84
2022/10/13 07:42:30;;;;;;;2.20;1.50;;;25.20;59.00;;;;;;5035738;28;20444;-81
2022/10/13 07:44:57;;;;;;;2.80;1.80;;;25.20;59.00;;;;;;5035713;28;20489;-82
2022/10/13 07:47:24;;;;;;;3.57;1.90;;;25.20;59.20;;;;;;5035586;28;20449;-84
2022/10/13 07:49:51;;;;;;;3.43;1.63;;;25.10;59.10;;;;;;5035568;28;20440;-83
2022/10/13 07:52:18;;;;;;;1.60;1.30;;;25.20;59.00;;;;;;5035643;28;20460;-84
2022/10/13 07:54:44;;;;;;;3.77;1.70;;;25.20;59.00;;;;;;5035753;28;20441;-83
2022/10/13 07:57:11;;;;;;;2.23;1.43;;;25.20;59.00;;;;;;5035780;28;20801;-83
2022/10/13 07:59:39;;;;;;;2.33;1.60;;;25.20;59.00;;;;;;5037780;28;20446;-82
2022/10/13 08:02:07;;;;;;;3.00;1.80;;;25.20;59.20;;;;;;5014786;28;20444;-84
2022/10/13 08:04:35;;;;;;;1.50;1.40;;;25.20;59.00;;;;;;5024279;28;20480;-84
2022/10/13 08:07:02;;;;;;;1.97;1.37;;;25.20;59.00;;;;;;5034226;28;20446;-84
2022/10/13 08:09:29;;;;;;;1.30;1.20;;;25.20;58.90;;;;;;5034131;28;20814;-83
2022/10/13 08:11:56;;;;;;;1.47;1.37;;;25.20;58.90;;;;;;5033919;28;20449;-84
2022/10/13 08:14:22;;;;;;;1.50;1.40;;;25.20;58.90;;;;;;5034289;28;20579;-84
2022/10/13 08:16:50;;;;;;;1.53;1.43;;;25.20;58.90;;;;;;5034664;28;20437;-82
2022/10/13 08:19:19;;;;;;;1.43;1.33;;;25.20;58.90;;;;;;5034125;28;20456;-83
2022/10/13 08:21:45;;;;;;;1.50;1.23;;;25.20;58.80;;;;;;5034707;28;20511;-83
2022/10/13 08:24:14;;;;;;;4.03;1.80;;;25.20;58.80;;;;;;5034924;28;20488;-83
2022/10/13 08:26:42;;;;;;;1.37;1.27;;;25.20;58.80;;;;;;5034426;28;20789;-83
2022/10/13 08:29:09;;;;;;;4.50;1.60;;;25.20;58.80;;;;;;5025647;28;20445;-83
2022/10/13 08:31:36;;;;;;;2.17;1.30;;;25.20;58.80;;;;;;5034316;28;20952;-83
2022/10/13 08:34:04;;;;;;;1.67;1.57;;;25.20;58.80;;;;;;5034321;28;20536;-82
2022/10/13 08:36:31;;;;;;;3.43;1.53;;;25.20;58.80;;;;;;5034209;28;20448;-83
2022/10/13 08:38:58;;;;;;;1.93;1.40;;;25.20;58.80;;;;;;5034019;28;20476;-83
2022/10/13 08:41:28;;;;;;;1.40;1.30;;;25.40;59.00;;;;;;5030889;28;20463;-82
2022/10/13 08:43:57;;;;;;;2.17;1.40;;;25.20;58.80;;;;;;5034220;28;20479;-82
2022/10/13 08:46:28;;;;;;;1.70;1.20;;;25.20;58.80;;;;;;5034196;28;20441;-82
2022/10/13 08:48:56;;;;;;;1.80;1.60;;;25.20;58.80;;;;;;5033448;28;20447;-82
2022/10/13 08:51:24;;;;;;;2.50;1.23;;;25.20;58.80;;;;;;5033571;28;20463;-82
2022/10/13 08:53:51;;;;;;;2.20;1.53;;;25.20;58.80;;;;;;5034115;28;20455;-82
2022/10/13 08:56:22;;;;;;;1.67;1.40;;;25.20;58.80;;;;;;5034430;28;20445;-82
2022/10/13 08:58:50;;;;;;;2.63;1.60;;;25.30;58.80;;;;;;5033967;28;20445;-82
2022/10/13 09:01:19;;;;;;;2.20;1.50;;;25.20;58.80;;;;;;5033691;28;20432;-82
2022/10/13 09:03:53;;;;;;;2.60;1.37;;;25.20;58.80;;;;;;5014675;28;20484;-82
2022/10/13 09:06:27;;;;;;;1.40;1.30;;;25.20;58.80;;;;;;5014265;28;20451;-82
2022/10/13 09:08:57;;;;;;;2.10;1.83;;;25.20;58.80;;;;;;5014039;28;20446;-83
2022/10/13 09:11:27;;;;;;;1.50;1.40;;;25.20;58.80;;;;;;5014186;28;20539;-82
2022/10/13 09:13:56;;;;;;;1.60;1.30;;;25.20;58.80;;;;;;5032289;28;20505;-82
2022/10/13 09:16:28;;;;;;;1.57;1.30;;;25.20;58.80;;;;;;5033480;28;20448;-83
2022/10/13 09:18:54;;;;;;;2.23;1.57;;;25.20;58.80;;;;;;5033151;28;20948;-83
2022/10/13 09:21:24;;;;;;;2.47;2.10;;;25.30;58.90;;;;;;5033073;28;20469;-83
2022/10/13 09:23:52;;;;;;;2.00;1.60;;;25.20;58.80;;;;;;5032723;28;20579;-83
2022/10/13 09:26:23;;;;;;;2.10;1.90;;;25.20;58.80;;;;;;5033799;28;20614;-85
2022/10/13 09:28:50;;;;;;;1.70;1.60;;;25.20;58.80;;;;;;5033731;28;20442;-84
2022/10/13 09:31:24;;;;;;;1.70;1.60;;;25.30;58.80;;;;;;5034785;28;20836;-85
2022/10/13 09:33:58;;;;;;;2.90;1.50;;;25.40;58.80;;;;;;5036098;28;20444;-85
2022/10/13 09:36:25;;;;;;;3.20;2.00;;;25.40;58.70;;;;;;5037753;28;20443;-83
2022/10/13 09:39:13;;;;;;;2.00;1.40;;;25.50;58.70;;;;;;5033212;28;20470;-81
2022/10/13 09:41:43;;;;;;;1.60;1.50;;;25.60;58.60;;;;;;5033108;28;20445;-83
2022/10/13 09:44:16;;;;;;;2.77;1.70;;;25.60;58.60;;;;;;5024256;28;21039;-83
2022/10/13 09:46:52;;;;;;;1.80;1.30;;;25.60;58.50;;;;;;5033103;28;20465;-82
2022/10/13 09:49:33;;;;;;;1.87;1.67;;;25.60;58.50;;;;;;5033460;28;20459;-81
2022/10/13 09:52:01;;;;;;;1.90;1.77;;;25.60;58.50;;;;;;5029019;28;20477;-84
2022/10/13 09:54:36;;;;;;;1.50;1.40;;;25.60;58.60;;;;;;5020386;28;20456;-82
2022/10/13 09:57:11;;;;;;;1.83;1.73;;;25.60;58.60;;;;;;5033409;28;20448;-82
2022/10/13 09:59:43;;;;;;;2.00;1.53;;;25.60;58.70;;;;;;5016717;28;20453;-82
2022/10/13 10:02:19;;;;;;;1.40;1.30;;;25.60;58.60;;;;;;5032926;28;20453;-85
2022/10/13 10:04:47;;;;;;;1.73;1.63;;;25.70;58.70;;;;;;5032668;28;20492;-82
2022/10/13 10:07:19;;;;;;;2.20;1.53;;;25.70;58.70;;;;;;5033094;28;20446;-84
2022/10/13 10:09:48;;;;;;;5.03;1.83;;;25.80;58.80;;;;;;5032952;28;20952;-83
2022/10/13 10:12:20;;;;;;;1.50;1.40;;;25.80;58.70;;;;;;5033310;28;20857;-82
2022/10/13 10:14:49;;;;;;;1.60;1.50;;;25.80;58.70;;;;;;5033635;28;20433;-85
2022/10/13 10:17:23;;;;;;;1.63;1.53;;;26.00;58.80;;;;;;5032908;28;20985;-87
2022/10/13 10:20:03;;;;;;;1.37;1.27;;;25.90;58.70;;;;;;5033418;28;20440;-83
2022/10/13 10:22:37;;;;;;;1.73;1.63;;;25.90;58.70;;;;;;5032915;28;20493;-82
2022/10/13 10:25:20;;;;;;;2.13;1.80;;;25.80;58.70;;;;;;5032340;28;20486;-83
2022/10/13 10:28:03;;;;;;;1.47;1.33;;;25.80;58.70;;;;;;5030126;28;20447;-84
2022/10/13 10:30:34;;;;;;;1.70;1.60;;;25.80;58.80;;;;;;5019585;28;20467;-83
2022/10/13 10:33:09;;;;;;;1.90;1.80;;;25.90;58.90;;;;;;5024885;28;20449;-84
2022/10/13 10:35:43;;;;;;;1.87;1.37;;;25.90;59.00;;;;;;5032882;28;20452;-84
2022/10/13 10:38:26;;;;;;;2.73;1.63;;;25.90;59.00;;;;;;5032750;28;20462;-85
2022/10/13 10:41:01;;;;;;;1.60;1.50;;;26.00;59.10;;;;;;5032262;28;20446;-84
2022/10/13 10:43:45;;;;;;;1.80;1.60;;;25.90;59.20;;;;;;5032736;28;20446;-83
2022/10/13 10:46:16;;;;;;;2.10;1.80;;;26.00;59.30;;;;;;5032663;28;20533;-85
2022/10/13 10:48:49;;;;;;;2.90;1.57;;;26.00;59.30;;;;;;5032702;28;20445;-84
2022/10/13 10:51:16;;;;;;;1.27;1.17;;;26.00;59.30;;;;;;5032724;28;20831;-84
2022/10/13 10:53:52;;;;;;;1.60;1.50;;;26.00;59.40;;;;;;5035851;28;20520;-84
2022/10/13 10:56:29;;;;;;;2.80;1.50;;;26.00;59.40;;;;;;5036807;28;20452;-85
2022/10/13 10:59:12;;;;;;;2.03;1.70;;;26.00;59.50;;;;;;5036526;28;20438;-84
2022/10/13 11:01:46;;;;;;;1.70;1.60;;;26.00;59.40;;;;;;5036418;28;20446;-85
2022/10/13 11:04:35;;;;;;;3.67;1.80;;;26.00;59.50;;;;;;5036162;28;20487;-85
2022/10/13 11:07:02;;;;;;;1.27;1.17;;;26.00;59.50;;;;;;5035396;28;20438;-85
2022/10/13 11:10:08;;;;;;;3.33;1.77;;;26.00;59.60;;;;;;5035915;28;20944;-84
2022/10/13 11:13:03;;;;;;;1.40;1.30;;;26.00;59.70;;;;;;5031290;28;20445;-84
2022/10/13 11:15:42;;;;;;;1.50;1.40;;;26.00;59.70;;;;;;5035807;28;20458;-85
2022/10/13 11:18:42;;;;;;;1.63;1.53;;;26.00;59.80;;;;;;5036178;28;20449;-85
2022/10/13 11:21:09;;;;;;;5.37;1.20;;;26.10;59.80;;;;;;5031632;28;20486;-83
2022/10/13 11:23:44;;;;;;;1.67;1.40;;;26.00;59.80;;;;;;5042979;28;20456;-82
2022/10/13 11:26:42;;;;;;;1.80;1.70;;;26.10;59.90;;;;;;5044355;28;20480;-83
2022/10/13 11:29:18;;;;;;;5.20;1.30;;;26.10;59.90;;;;;;5019058;28;20473;-86
2022/10/13 11:31:53;;;;;;;1.57;1.47;;;26.10;60.00;;;;;;5028100;28;20442;-85
2022/10/13 11:34:31;;;;;;;1.70;1.60;;;26.10;60.00;;;;;;5034073;28;20456;-86
2022/10/13 11:37:01;;;;;;;1.70;1.30;;;26.10;60.00;;;;;;5015781;28;20427;-88
2022/10/13 11:40:21;;;;;;;1.67;1.57;;;26.10;60.00;;;;;;5019686;28;20479;-85
2022/10/13 11:43:17;;;;;;;1.93;1.73;;;26.10;60.00;;;;;;4970427;28;20857;-86
2022/10/13 11:46:03;;;;;;;1.53;1.43;;;26.10;60.10;;;;;;4974769;28;20852;-89
2022/10/13 11:49:06;;;;;;;1.57;1.30;;;26.10;60.00;;;;;;5016482;28;20445;-90
2022/10/13 11:51:46;;;;;;;2.03;1.30;;;26.00;60.00;;;;;;5015513;28;20466;-85
2022/10/13 11:54:23;;;;;;;1.60;1.50;;;26.00;60.00;;;;;;5016435;28;20439;-86
2022/10/13 11:56:52;;;;;;;1.60;1.50;;;26.10;60.10;;;;;;5015894;28;20441;-83
2022/10/13 11:59:24;;;;;;;2.47;1.30;;;26.00;60.00;;;;;;5015547;28;20443;-86
2022/10/13 12:01:56;;;;;;;1.53;1.40;;;26.00;60.00;;;;;;5015623;28;20445;-84
2022/10/13 12:04:24;;;;;;;1.30;1.20;;;26.00;60.00;;;;;;5015143;28;20493;-85
2022/10/13 12:07:00;;;;;;;1.60;1.50;;;26.00;60.00;;;;;;5014431;28;20447;-86
2022/10/13 12:09:27;;;;;;;2.30;1.70;;;26.00;60.00;;;;;;5014047;28;20446;-85
2022/10/13 12:12:00;;;;;;;1.80;1.50;;;26.00;60.00;;;;;;5017409;28;20446;-90
2022/10/13 12:14:32;;;;;;;4.50;1.50;;;26.00;60.00;;;;;;5035139;28;20436;-91
2022/10/13 12:17:01;;;;;;;1.60;1.50;;;25.90;60.00;;;;;;5035553;28;20469;-86
2022/10/13 12:19:30;;;;;;;1.57;1.40;;;25.90;60.00;;;;;;5035069;28;20952;-84
2022/10/13 12:22:01;;;;;;;1.67;1.20;;;25.90;60.00;;;;;;5035389;28;20462;-85
2022/10/13 12:24:29;;;;;;;1.57;1.47;;;25.90;60.10;;;;;;5034876;28;20480;-88
2022/10/13 12:26:57;;;;;;;1.50;1.27;;;25.90;60.10;;;;;;5034097;28;20445;-92
2022/10/13 12:29:26;;;;;;;2.07;1.30;;;25.90;60.10;;;;;;5034513;28;20442;-84
2022/10/13 12:31:53;;;;;;;1.40;1.30;;;25.80;60.00;;;;;;5034625;28;20451;-88
2022/10/13 12:34:24;;;;;;;2.00;1.57;;;25.80;60.00;;;;;;5033936;28;20472;-87
2022/10/13 12:36:59;;;;;;;1.60;1.50;;;25.80;60.10;;;;;;5033713;28;20450;-88
2022/10/13 12:39:28;;;;;;;1.87;1.20;;;25.80;60.10;;;;;;5033461;28;20473;-84
2022/10/13 12:41:57;;;;;;;2.03;1.50;;;25.80;60.10;;;;;;5033546;28;20449;-87
2022/10/13 12:44:25;;;;;;;1.30;1.20;;;25.80;60.20;;;;;;5033345;28;20458;-87
2022/10/13 12:46:55;;;;;;;1.40;1.30;;;25.70;60.10;;;;;;5033181;28;20996;-86
2022/10/13 12:49:24;;;;;;;2.37;1.40;;;25.80;60.20;;;;;;5033220;28;20966;-83
2022/10/13 12:51:54;;;;;;;1.63;1.30;;;25.70;60.10;;;;;;5033344;28;21260;-86
2022/10/13 12:54:28;;;;;;;3.37;1.60;;;25.70;60.10;;;;;;5033606;28;20450;-84
2022/10/13 12:56:58;;;;;;;1.33;1.23;;;25.70;60.10;;;;;;5033166;28;20940;-83
2022/10/13 12:59:28;;;;;;;1.40;1.30;;;25.70;60.10;;;;;;5032945;28;20483;-82
2022/10/13 13:02:00;;;;;;;2.03;1.37;;;25.70;60.10;;;;;;5033878;28;20453;-83
2022/10/13 13:04:40;;;;;;;1.43;1.33;;;25.60;60.10;;;;;;5034283;28;20445;-88